sensor_id;sensor_type;location;lat;lon;timestamp;pressure;altitude;pressure_sealevel;temperature;humidity
43480;BME280;29067;35.492;-97.520;2023-06-14T00:01:37;96483.78;;;25.79;47.35
43480;BME280;29067;35.492;-97.520;2023-06-14T00:04:05;96484.67;;;25.11;47.36
43480;BME280;29067;35.492;-97.520;2023-06-14T00:06:34;96483.33;;;25.29;48.36
43480;BME280;29067;35.492;-97.520;2023-06-14T00:09:02;96481.63;;;25.37;47.50
43480;BME280;29067;35.492;-97.520;2023-06-14T00:11:31;96484.96;;;24.99;47.93
43480;BME280;29067;35.492;-97.520;2023-06-14T00:13:59;96485.33;;;25.19;47.89
43480;BME280;29067;35.492;-97.520;2023-06-14T00:16:27;96485.31;;;25.72;48.31
43480;BME280;29067;35.492;-97.520;2023-06-14T00:18:56;96488.66;;;25.45;47.67
43480;BME280;29067;35.492;-97.520;2023-06-14T00:21:25;96484.72;;;25.70;46.93
43480;BME280;29067;35.492;-97.520;2023-06-14T00:23:53;96489.95;;;25.18;47.24
43480;BME280;29067;35.492;-97.520;2023-06-14T00:26:21;96498.92;;;26.44;46.28
43480;BME280;29067;35.492;-97.520;2023-06-14T00:28:50;96502.03;;;26.59;46.62
43480;BME280;29067;35.492;-97.520;2023-06-14T00:31:18;96501.29;;;27.25;45.78
43480;BME280;29067;35.492;-97.520;2023-06-14T00:33:46;96505.11;;;25.52;47.19
43480;BME280;29067;35.492;-97.520;2023-06-14T00:36:15;96512.10;;;24.82;48.32
43480;BME280;29067;35.492;-97.520;2023-06-14T00:38:43;96520.73;;;26.99;45.72
43480;BME280;29067;35.492;-97.520;2023-06-14T00:41:11;96524.06;;;27.43;45.98
43480;BME280;29067;35.492;-97.520;2023-06-14T00:43:40;96528.27;;;27.34;45.29
43480;BME280;29067;35.492;-97.520;2023-06-14T00:46:08;96528.44;;;27.77;45.44
43480;BME280;29067;35.492;-97.520;2023-06-14T00:48:37;96526.89;;;26.45;47.01
43480;BME280;29067;35.492;-97.520;2023-06-14T00:51:07;96524.05;;;24.40;49.31
43480;BME280;29067;35.492;-97.520;2023-06-14T00:53:37;96535.65;;;26.97;46.46
43480;BME280;29067;35.492;-97.520;2023-06-14T00:56:05;96542.76;;;26.24;47.33
43480;BME280;29067;35.492;-97.520;2023-06-14T00:58:33;96546.96;;;25.56;48.36
43480;BME280;29067;35.492;-97.520;2023-06-14T01:01:01;96552.02;;;25.95;47.57
43480;BME280;29067;35.492;-97.520;2023-06-14T01:03:29;96554.24;;;25.44;48.74
43480;BME280;29067;35.492;-97.520;2023-06-14T01:06:09;96541.54;;;24.23;51.40
43480;BME280;29067;35.492;-97.520;2023-06-14T01:08:50;96535.12;;;24.52;51.14
43480;BME280;29067;35.492;-97.520;2023-06-14T01:11:24;96536.17;;;26.11;49.38
43480;BME280;29067;35.492;-97.520;2023-06-14T01:13:55;96537.80;;;25.97;49.37
43480;BME280;29067;35.492;-97.520;2023-06-14T01:16:24;96545.20;;;25.51;50.30
43480;BME280;29067;35.492;-97.520;2023-06-14T01:18:54;96538.76;;;25.59;49.82
43480;BME280;29067;35.492;-97.520;2023-06-14T01:21:24;96529.77;;;25.56;48.98
43480;BME280;29067;35.492;-97.520;2023-06-14T01:23:53;96549.71;;;26.55;48.51
43480;BME280;29067;35.492;-97.520;2023-06-14T01:26:23;96562.88;;;26.31;48.60
43480;BME280;29067;35.492;-97.520;2023-06-14T01:28:52;96556.24;;;25.46;49.45
43480;BME280;29067;35.492;-97.520;2023-06-14T01:31:22;96552.53;;;25.91;51.44
43480;BME280;29067;35.492;-97.520;2023-06-14T01:33:51;96559.91;;;24.90;55.74
43480;BME280;29067;35.492;-97.520;2023-06-14T01:36:21;96564.33;;;25.25;58.08
43480;BME280;29067;35.492;-97.520;2023-06-14T01:38:51;96558.31;;;25.94;56.40
43480;BME280;29067;35.492;-97.520;2023-06-14T01:41:21;96565.62;;;24.11;59.26
43480;BME280;29067;35.492;-97.520;2023-06-14T01:43:52;96577.68;;;24.06;60.90
43480;BME280;29067;35.492;-97.520;2023-06-14T01:46:21;96577.94;;;24.87;60.16
43480;BME280;29067;35.492;-97.520;2023-06-14T01:48:50;96590.82;;;24.39;61.02
43480;BME280;29067;35.492;-97.520;2023-06-14T01:51:19;96597.48;;;24.90;61.38
43480;BME280;29067;35.492;-97.520;2023-06-14T01:53:48;96591.07;;;24.00;62.41
43480;BME280;29067;35.492;-97.520;2023-06-14T01:56:16;96593.89;;;24.31;61.75
43480;BME280;29067;35.492;-97.520;2023-06-14T01:58:44;96609.81;;;23.23;66.11
43480;BME280;29067;35.492;-97.520;2023-06-14T02:01:13;96616.31;;;24.08;62.47
43480;BME280;29067;35.492;-97.520;2023-06-14T02:03:42;96625.06;;;22.21;67.10
43480;BME280;29067;35.492;-97.520;2023-06-14T02:06:10;96617.27;;;24.72;61.75
43480;BME280;29067;35.492;-97.520;2023-06-14T02:08:39;96625.50;;;25.03;60.92
43480;BME280;29067;35.492;-97.520;2023-06-14T02:11:09;96639.72;;;23.03;65.67
43480;BME280;29067;35.492;-97.520;2023-06-14T02:13:39;96652.12;;;22.63;64.94
43480;BME280;29067;35.492;-97.520;2023-06-14T02:16:10;96659.37;;;22.87;65.69
43480;BME280;29067;35.492;-97.520;2023-06-14T02:18:39;96657.00;;;23.36;63.70
43480;BME280;29067;35.492;-97.520;2023-06-14T02:21:07;96650.93;;;24.01;62.71
43480;BME280;29067;35.492;-97.520;2023-06-14T02:23:37;96646.00;;;24.54;63.25
43480;BME280;29067;35.492;-97.520;2023-06-14T02:26:06;96660.91;;;23.78;64.52
43480;BME280;29067;35.492;-97.520;2023-06-14T02:28:34;96670.21;;;22.53;69.09
43480;BME280;29067;35.492;-97.520;2023-06-14T02:31:04;96639.88;;;23.06;67.08
43480;BME280;29067;35.492;-97.520;2023-06-14T02:33:36;96607.28;;;24.12;64.50
43480;BME280;29067;35.492;-97.520;2023-06-14T02:36:07;96608.52;;;22.76;67.44
43480;BME280;29067;35.492;-97.520;2023-06-14T02:38:35;96605.09;;;23.47;64.83
43480;BME280;29067;35.492;-97.520;2023-06-14T02:41:03;96598.44;;;24.72;61.19
43480;BME280;29067;35.492;-97.520;2023-06-14T02:43:31;96583.31;;;24.14;62.35
43480;BME280;29067;35.492;-97.520;2023-06-14T02:46:00;96570.69;;;24.49;60.48
43480;BME280;29067;35.492;-97.520;2023-06-14T02:48:29;96562.16;;;23.20;63.43
43480;BME280;29067;35.492;-97.520;2023-06-14T02:50:57;96543.27;;;23.15;62.67
43480;BME280;29067;35.492;-97.520;2023-06-14T02:53:29;96536.22;;;23.79;62.36
43480;BME280;29067;35.492;-97.520;2023-06-14T02:55:57;96533.48;;;23.61;62.40
43480;BME280;29067;35.492;-97.520;2023-06-14T02:58:25;96542.03;;;24.12;59.74
43480;BME280;29067;35.492;-97.520;2023-06-14T03:00:54;96541.85;;;24.05;62.10
43480;BME280;29067;35.492;-97.520;2023-06-14T03:03:22;96544.84;;;22.92;64.04
43480;BME280;29067;35.492;-97.520;2023-06-14T03:05:51;96548.76;;;24.08;61.54
43480;BME280;29067;35.492;-97.520;2023-06-14T03:08:18;96544.89;;;22.97;64.06
43480;BME280;29067;35.492;-97.520;2023-06-14T03:10:49;96567.86;;;23.42;64.13
43480;BME280;29067;35.492;-97.520;2023-06-14T03:13:17;96602.34;;;23.89;62.55
43480;BME280;29067;35.492;-97.520;2023-06-14T03:15:46;96634.02;;;24.44;61.66
43480;BME280;29067;35.492;-97.520;2023-06-14T03:18:14;96637.61;;;24.23;61.22
43480;BME280;29067;35.492;-97.520;2023-06-14T03:20:42;96638.70;;;23.33;64.06
43480;BME280;29067;35.492;-97.520;2023-06-14T03:23:16;96638.52;;;23.81;62.69
43480;BME280;29067;35.492;-97.520;2023-06-14T03:25:43;96629.63;;;23.18;66.28
43480;BME280;29067;35.492;-97.520;2023-06-14T03:28:12;96617.01;;;22.35;68.32
43480;BME280;29067;35.492;-97.520;2023-06-14T03:30:40;96624.67;;;23.24;68.08
43480;BME280;29067;35.492;-97.520;2023-06-14T03:33:08;96570.15;;;23.07;67.00
43480;BME280;29067;35.492;-97.520;2023-06-14T03:35:37;96519.64;;;21.59;68.50
43480;BME280;29067;35.492;-97.520;2023-06-14T03:38:05;96510.17;;;22.24;67.40
43480;BME280;29067;35.492;-97.520;2023-06-14T03:40:33;96507.16;;;23.27;65.20
43480;BME280;29067;35.492;-97.520;2023-06-14T03:43:02;96522.80;;;21.89;67.72
43480;BME280;29067;35.492;-97.520;2023-06-14T03:45:30;96537.45;;;23.07;65.83
43480;BME280;29067;35.492;-97.520;2023-06-14T03:47:58;96561.18;;;23.21;66.72
43480;BME280;29067;35.492;-97.520;2023-06-14T03:50:27;96579.89;;;23.23;64.74
43480;BME280;29067;35.492;-97.520;2023-06-14T03:52:56;96583.03;;;23.38;63.51
43480;BME280;29067;35.492;-97.520;2023-06-14T03:55:24;96595.97;;;24.05;63.36
43480;BME280;29067;35.492;-97.520;2023-06-14T03:57:53;96591.51;;;24.36;62.30
43480;BME280;29067;35.492;-97.520;2023-06-14T04:00:21;96573.04;;;23.07;64.51
43480;BME280;29067;35.492;-97.520;2023-06-14T04:02:49;96560.26;;;23.75;62.23
43480;BME280;29067;35.492;-97.520;2023-06-14T04:05:18;96563.98;;;24.69;61.79
43480;BME280;29067;35.492;-97.520;2023-06-14T04:07:46;96564.03;;;24.62;61.74
43480;BME280;29067;35.492;-97.520;2023-06-14T04:10:15;96582.42;;;22.97;63.98
43480;BME280;29067;35.492;-97.520;2023-06-14T04:12:45;96593.68;;;24.52;61.98
43480;BME280;29067;35.492;-97.520;2023-06-14T04:15:18;96602.30;;;24.13;61.58
43480;BME280;29067;35.492;-97.520;2023-06-14T04:17:47;96617.94;;;23.58;62.55
43480;BME280;29067;35.492;-97.520;2023-06-14T04:20:15;96637.14;;;24.04;61.18
43480;BME280;29067;35.492;-97.520;2023-06-14T04:22:43;96653.73;;;23.80;61.52
43480;BME280;29067;35.492;-97.520;2023-06-14T04:25:12;96662.73;;;23.06;63.27
43480;BME280;29067;35.492;-97.520;2023-06-14T04:27:40;96657.18;;;23.29;64.03
43480;BME280;29067;35.492;-97.520;2023-06-14T04:30:09;96634.37;;;24.57;62.64
43480;BME280;29067;35.492;-97.520;2023-06-14T04:32:38;96620.17;;;24.58;61.47
43480;BME280;29067;35.492;-97.520;2023-06-14T04:35:06;96625.89;;;23.31;63.54
43480;BME280;29067;35.492;-97.520;2023-06-14T04:37:35;96631.09;;;24.33;62.82
43480;BME280;29067;35.492;-97.520;2023-06-14T04:40:05;96626.43;;;24.03;62.88
43480;BME280;29067;35.492;-97.520;2023-06-14T04:42:33;96624.22;;;24.74;61.09
43480;BME280;29067;35.492;-97.520;2023-06-14T04:45:02;96633.84;;;24.26;62.57
43480;BME280;29067;35.492;-97.520;2023-06-14T04:47:30;96630.41;;;23.97;62.78
43480;BME280;29067;35.492;-97.520;2023-06-14T04:49:58;96621.20;;;23.92;62.78
43480;BME280;29067;35.492;-97.520;2023-06-14T04:52:26;96618.38;;;23.98;62.65
43480;BME280;29067;35.492;-97.520;2023-06-14T04:54:55;96620.87;;;23.56;63.26
43480;BME280;29067;35.492;-97.520;2023-06-14T04:57:23;96623.35;;;23.78;63.24
43480;BME280;29067;35.492;-97.520;2023-06-14T04:59:52;96637.48;;;22.91;64.70
43480;BME280;29067;35.492;-97.520;2023-06-14T05:02:20;96647.99;;;22.68;67.88
43480;BME280;29067;35.492;-97.520;2023-06-14T05:04:48;96642.58;;;23.10;66.17
43480;BME280;29067;35.492;-97.520;2023-06-14T05:10:21;96625.65;;;22.82;64.54
43480;BME280;29067;35.492;-97.520;2023-06-14T05:12:48;96612.14;;;24.22;62.63
43480;BME280;29067;35.492;-97.520;2023-06-14T05:15:17;96597.71;;;22.90;64.08
43480;BME280;29067;35.492;-97.520;2023-06-14T05:17:46;96586.01;;;22.58;67.21
43480;BME280;29067;35.492;-97.520;2023-06-14T05:20:14;96576.17;;;21.28;69.87
43480;BME280;29067;35.492;-97.520;2023-06-14T05:22:43;96557.78;;;23.16;66.44
43480;BME280;29067;35.492;-97.520;2023-06-14T05:25:11;96533.71;;;23.49;66.13
43480;BME280;29067;35.492;-97.520;2023-06-14T05:27:39;96527.97;;;23.23;66.04
43480;BME280;29067;35.492;-97.520;2023-06-14T05:30:08;96519.13;;;23.68;64.50
43480;BME280;29067;35.492;-97.520;2023-06-14T05:32:36;96513.86;;;24.20;62.98
43480;BME280;29067;35.492;-97.520;2023-06-14T05:35:06;96501.73;;;23.69;63.52
43480;BME280;29067;35.492;-97.520;2023-06-14T05:37:34;96496.05;;;23.72;63.78
43480;BME280;29067;35.492;-97.520;2023-06-14T05:40:03;96486.24;;;23.91;62.72
43480;BME280;29067;35.492;-97.520;2023-06-14T05:42:31;96471.92;;;24.12;63.12
43480;BME280;29067;35.492;-97.520;2023-06-14T05:44:59;96473.02;;;21.64;67.00
43480;BME280;29067;35.492;-97.520;2023-06-14T05:47:28;96467.77;;;23.77;63.12
43480;BME280;29067;35.492;-97.520;2023-06-14T05:49:56;96459.87;;;23.81;62.88
43480;BME280;29067;35.492;-97.520;2023-06-14T05:52:24;96455.28;;;23.39;64.20
43480;BME280;29067;35.492;-97.520;2023-06-14T05:54:52;96468.66;;;23.06;64.10
43480;BME280;29067;35.492;-97.520;2023-06-14T05:57:19;96468.40;;;22.69;66.50
43480;BME280;29067;35.492;-97.520;2023-06-14T05:59:48;96448.07;;;22.38;67.16
43480;BME280;29067;35.492;-97.520;2023-06-14T06:02:16;96430.72;;;22.37;67.40
43480;BME280;29067;35.492;-97.520;2023-06-14T06:04:45;96427.58;;;21.43;69.99
43480;BME280;29067;35.492;-97.520;2023-06-14T06:07:12;96417.76;;;22.99;66.42
43480;BME280;29067;35.492;-97.520;2023-06-14T06:09:41;96417.32;;;21.22;70.16
43480;BME280;29067;35.492;-97.520;2023-06-14T06:12:10;96411.13;;;21.16;72.65
43480;BME280;29067;35.492;-97.520;2023-06-14T06:14:37;96399.06;;;21.77;69.97
43480;BME280;29067;35.492;-97.520;2023-06-14T06:17:06;96386.48;;;22.80;67.25
43480;BME280;29067;35.492;-97.520;2023-06-14T06:19:34;96375.82;;;23.09;66.39
43480;BME280;29067;35.492;-97.520;2023-06-14T06:22:03;96367.01;;;22.78;66.89
43480;BME280;29067;35.492;-97.520;2023-06-14T06:24:31;96370.87;;;22.04;68.63
43480;BME280;29067;35.492;-97.520;2023-06-14T06:26:59;96369.12;;;22.55;67.87
43480;BME280;29067;35.492;-97.520;2023-06-14T06:29:28;96362.01;;;23.43;66.15
43480;BME280;29067;35.492;-97.520;2023-06-14T06:31:56;96359.74;;;23.21;66.12
43480;BME280;29067;35.492;-97.520;2023-06-14T06:34:24;96359.94;;;24.01;64.19
43480;BME280;29067;35.492;-97.520;2023-06-14T06:36:51;96366.15;;;23.76;64.46
43480;BME280;29067;35.492;-97.520;2023-06-14T06:39:19;96366.13;;;23.46;63.82
43480;BME280;29067;35.492;-97.520;2023-06-14T06:41:48;96357.38;;;23.88;64.36
43480;BME280;29067;35.492;-97.520;2023-06-14T06:44:15;96362.48;;;22.70;66.32
43480;BME280;29067;35.492;-97.520;2023-06-14T06:46:44;96361.92;;;23.77;64.13
43480;BME280;29067;35.492;-97.520;2023-06-14T06:49:13;96370.59;;;23.69;63.49
43480;BME280;29067;35.492;-97.520;2023-06-14T06:51:42;96375.69;;;22.63;65.99
43480;BME280;29067;35.492;-97.520;2023-06-14T06:54:11;96368.78;;;23.19;63.85
43480;BME280;29067;35.492;-97.520;2023-06-14T06:56:39;96373.56;;;23.91;62.87
43480;BME280;29067;35.492;-97.520;2023-06-14T06:59:07;96383.61;;;23.47;63.66
43480;BME280;29067;35.492;-97.520;2023-06-14T07:01:35;96391.97;;;23.64;63.58
43480;BME280;29067;35.492;-97.520;2023-06-14T07:04:03;96386.02;;;23.51;64.11
43480;BME280;29067;35.492;-97.520;2023-06-14T07:06:31;96376.90;;;23.62;63.58
43480;BME280;29067;35.492;-97.520;2023-06-14T07:08:59;96371.18;;;22.99;63.96
43480;BME280;29067;35.492;-97.520;2023-06-14T07:11:28;96368.06;;;23.83;62.50
43480;BME280;29067;35.492;-97.520;2023-06-14T07:13:56;96381.77;;;23.23;63.63
43480;BME280;29067;35.492;-97.520;2023-06-14T07:16:24;96379.20;;;22.89;65.02
43480;BME280;29067;35.492;-97.520;2023-06-14T07:18:53;96369.82;;;23.44;64.22
43480;BME280;29067;35.492;-97.520;2023-06-14T07:21:21;96370.89;;;24.38;63.26
43480;BME280;29067;35.492;-97.520;2023-06-14T07:23:49;96374.40;;;23.22;63.40
43480;BME280;29067;35.492;-97.520;2023-06-14T07:26:17;96373.97;;;23.24;63.73
43480;BME280;29067;35.492;-97.520;2023-06-14T07:28:46;96370.85;;;23.35;63.40
43480;BME280;29067;35.492;-97.520;2023-06-14T07:31:15;96369.65;;;23.12;63.08
43480;BME280;29067;35.492;-97.520;2023-06-14T07:33:44;96374.16;;;23.32;62.99
43480;BME280;29067;35.492;-97.520;2023-06-14T07:36:11;96373.41;;;23.47;62.54
43480;BME280;29067;35.492;-97.520;2023-06-14T07:38:40;96377.97;;;22.79;63.17
43480;BME280;29067;35.492;-97.520;2023-06-14T07:41:08;96371.42;;;22.89;64.06
43480;BME280;29067;35.492;-97.520;2023-06-14T07:43:36;96372.67;;;22.38;65.75
43480;BME280;29067;35.492;-97.520;2023-06-14T07:46:04;96374.42;;;22.50;65.59
43480;BME280;29067;35.492;-97.520;2023-06-14T07:48:33;96369.70;;;21.75;67.54
43480;BME280;29067;35.492;-97.520;2023-06-14T07:51:01;96371.03;;;21.78;67.18
43480;BME280;29067;35.492;-97.520;2023-06-14T07:53:29;96375.64;;;23.17;65.10
43480;BME280;29067;35.492;-97.520;2023-06-14T07:55:58;96379.41;;;22.56;66.68
43480;BME280;29067;35.492;-97.520;2023-06-14T07:58:26;96378.47;;;22.38;66.23
43480;BME280;29067;35.492;-97.520;2023-06-14T08:00:55;96368.80;;;22.60;65.52
43480;BME280;29067;35.492;-97.520;2023-06-14T08:03:22;96363.43;;;22.62;65.56
43480;BME280;29067;35.492;-97.520;2023-06-14T08:05:50;96360.07;;;23.17;65.21
43480;BME280;29067;35.492;-97.520;2023-06-14T08:08:18;96359.31;;;22.51;65.61
43480;BME280;29067;35.492;-97.520;2023-06-14T08:10:46;96366.57;;;22.75;64.60
43480;BME280;29067;35.492;-97.520;2023-06-14T08:13:15;96369.03;;;23.83;64.62
43480;BME280;29067;35.492;-97.520;2023-06-14T08:15:44;96380.71;;;22.57;65.07
43480;BME280;29067;35.492;-97.520;2023-06-14T08:18:12;96375.81;;;22.62;65.06
43480;BME280;29067;35.492;-97.520;2023-06-14T08:20:41;96380.12;;;22.03;65.98
43480;BME280;29067;35.492;-97.520;2023-06-14T08:23:08;96391.55;;;21.75;66.39
43480;BME280;29067;35.492;-97.520;2023-06-14T08:25:36;96401.20;;;23.00;64.91
43480;BME280;29067;35.492;-97.520;2023-06-14T08:28:05;96409.20;;;22.10;67.08
43480;BME280;29067;35.492;-97.520;2023-06-14T08:30:33;96415.37;;;23.28;65.57
43480;BME280;29067;35.492;-97.520;2023-06-14T08:33:01;96423.70;;;22.95;65.33
43480;BME280;29067;35.492;-97.520;2023-06-14T08:35:29;96437.71;;;21.77;66.39
43480;BME280;29067;35.492;-97.520;2023-06-14T08:37:57;96446.35;;;22.54;66.10
43480;BME280;29067;35.492;-97.520;2023-06-14T08:40:27;96458.17;;;21.35;68.25
43480;BME280;29067;35.492;-97.520;2023-06-14T08:42:57;96458.92;;;22.84;64.88
43480;BME280;29067;35.492;-97.520;2023-06-14T08:45:25;96459.29;;;22.87;64.49
43480;BME280;29067;35.492;-97.520;2023-06-14T08:47:54;96463.67;;;21.64;67.39
43480;BME280;29067;35.492;-97.520;2023-06-14T08:50:23;96463.38;;;21.66;68.88
43480;BME280;29067;35.492;-97.520;2023-06-14T08:52:54;96460.36;;;22.32;65.93
43480;BME280;29067;35.492;-97.520;2023-06-14T08:55:24;96457.02;;;22.90;65.48
43480;BME280;29067;35.492;-97.520;2023-06-14T08:57:54;96460.98;;;22.15;66.26
43480;BME280;29067;35.492;-97.520;2023-06-14T09:00:23;96456.19;;;23.88;64.63
43480;BME280;29067;35.492;-97.520;2023-06-14T09:02:51;96461.61;;;23.35;64.83
43480;BME280;29067;35.492;-97.520;2023-06-14T09:05:19;96458.76;;;23.41;63.80
43480;BME280;29067;35.492;-97.520;2023-06-14T09:07:47;96455.25;;;23.64;63.05
43480;BME280;29067;35.492;-97.520;2023-06-14T09:10:16;96455.07;;;21.88;67.24
43480;BME280;29067;35.492;-97.520;2023-06-14T09:12:44;96458.81;;;23.00;67.18
43480;BME280;29067;35.492;-97.520;2023-06-14T09:15:12;96464.76;;;22.23;67.23
43480;BME280;29067;35.492;-97.520;2023-06-14T09:17:40;96468.42;;;22.18;68.77
43480;BME280;29067;35.492;-97.520;2023-06-14T09:20:09;96463.54;;;22.11;67.73
43480;BME280;29067;35.492;-97.520;2023-06-14T09:22:37;96463.40;;;21.84;71.25
43480;BME280;29067;35.492;-97.520;2023-06-14T09:25:06;96463.68;;;22.17;68.44
43480;BME280;29067;35.492;-97.520;2023-06-14T09:27:36;96464.66;;;22.70;69.24
43480;BME280;29067;35.492;-97.520;2023-06-14T09:30:05;96467.15;;;22.41;68.60
43480;BME280;29067;35.492;-97.520;2023-06-14T09:32:37;96463.72;;;22.74;65.68
43480;BME280;29067;35.492;-97.520;2023-06-14T09:35:07;96462.47;;;22.96;66.25
43480;BME280;29067;35.492;-97.520;2023-06-14T09:37:35;96464.08;;;22.32;67.19
43480;BME280;29067;35.492;-97.520;2023-06-14T09:40:04;96460.62;;;22.12;67.58
43480;BME280;29067;35.492;-97.520;2023-06-14T09:42:33;96457.11;;;22.40;66.00
43480;BME280;29067;35.492;-97.520;2023-06-14T09:45:02;96458.69;;;23.29;64.88
43480;BME280;29067;35.492;-97.520;2023-06-14T09:47:30;96473.03;;;21.37;68.35
43480;BME280;29067;35.492;-97.520;2023-06-14T09:49:59;96473.81;;;22.48;67.92
43480;BME280;29067;35.492;-97.520;2023-06-14T09:52:28;96466.44;;;22.50;66.62
43480;BME280;29067;35.492;-97.520;2023-06-14T09:54:56;96464.07;;;22.68;64.91
43480;BME280;29067;35.492;-97.520;2023-06-14T09:57:27;96464.04;;;22.38;65.48
43480;BME280;29067;35.492;-97.520;2023-06-14T09:59:58;96465.18;;;20.85;69.01
43480;BME280;29067;35.492;-97.520;2023-06-14T10:02:28;96459.37;;;21.60;67.45
43480;BME280;29067;35.492;-97.520;2023-06-14T10:05:02;96453.55;;;21.52;67.35
43480;BME280;29067;35.492;-97.520;2023-06-14T10:07:34;96450.04;;;22.21;66.65
43480;BME280;29067;35.492;-97.520;2023-06-14T10:10:03;96453.32;;;21.16;70.22
43480;BME280;29067;35.492;-97.520;2023-06-14T10:12:31;96448.92;;;22.24;66.08
43480;BME280;29067;35.492;-97.520;2023-06-14T10:15:00;96449.00;;;23.27;64.31
43480;BME280;29067;35.492;-97.520;2023-06-14T10:17:35;96452.22;;;23.06;63.77
43480;BME280;29067;35.492;-97.520;2023-06-14T10:20:19;96452.37;;;22.80;64.08
43480;BME280;29067;35.492;-97.520;2023-06-14T10:22:53;96451.20;;;23.78;62.98
43480;BME280;29067;35.492;-97.520;2023-06-14T10:25:28;96452.19;;;22.77;64.48
43480;BME280;29067;35.492;-97.520;2023-06-14T10:28:05;96453.83;;;22.07;65.10
43480;BME280;29067;35.492;-97.520;2023-06-14T10:31:02;96445.72;;;22.34;65.32
43480;BME280;29067;35.492;-97.520;2023-06-14T10:33:31;96451.21;;;21.48;65.61
43480;BME280;29067;35.492;-97.520;2023-06-14T10:36:31;96457.59;;;22.08;65.59
43480;BME280;29067;35.492;-97.520;2023-06-14T10:39:03;96462.28;;;21.64;65.33
43480;BME280;29067;35.492;-97.520;2023-06-14T10:41:35;96460.72;;;21.78;65.14
43480;BME280;29067;35.492;-97.520;2023-06-14T10:44:40;96456.56;;;21.64;67.42
43480;BME280;29067;35.492;-97.520;2023-06-14T10:47:10;96459.31;;;20.58;70.61
43480;BME280;29067;35.492;-97.520;2023-06-14T10:49:44;96458.97;;;20.41;69.95
43480;BME280;29067;35.492;-97.520;2023-06-14T10:52:14;96461.76;;;21.24;68.83
43480;BME280;29067;35.492;-97.520;2023-06-14T10:55:00;96464.97;;;20.43;70.96
43480;BME280;29067;35.492;-97.520;2023-06-14T10:57:33;96474.86;;;18.91;75.26
43480;BME280;29067;35.492;-97.520;2023-06-14T11:00:03;96476.38;;;20.99;71.79
43480;BME280;29067;35.492;-97.520;2023-06-14T11:05:15;96479.78;;;20.58;74.44
43480;BME280;29067;35.492;-97.520;2023-06-14T11:07:52;96479.45;;;19.63;72.60
43480;BME280;29067;35.492;-97.520;2023-06-14T11:10:33;96482.63;;;19.92;72.64
43480;BME280;29067;35.492;-97.520;2023-06-14T11:13:04;96487.08;;;20.11;73.11
43480;BME280;29067;35.492;-97.520;2023-06-14T11:15:33;96493.32;;;19.08;75.53
43480;BME280;29067;35.492;-97.520;2023-06-14T11:18:02;96495.48;;;21.33;68.84
43480;BME280;29067;35.492;-97.520;2023-06-14T11:20:32;96496.95;;;20.41;69.28
43480;BME280;29067;35.492;-97.520;2023-06-14T11:23:01;96499.41;;;20.90;68.93
43480;BME280;29067;35.492;-97.520;2023-06-14T11:25:29;96504.35;;;19.87;69.58
43480;BME280;29067;35.492;-97.520;2023-06-14T11:27:57;96514.65;;;20.46;69.17
43480;BME280;29067;35.492;-97.520;2023-06-14T11:30:26;96519.29;;;20.71;69.31
43480;BME280;29067;35.492;-97.520;2023-06-14T11:32:54;96516.52;;;20.24;68.75
43480;BME280;29067;35.492;-97.520;2023-06-14T11:35:23;96523.69;;;21.50;66.55
43480;BME280;29067;35.492;-97.520;2023-06-14T11:37:54;96527.21;;;20.58;67.87
43480;BME280;29067;35.492;-97.520;2023-06-14T11:40:24;96525.92;;;20.99;65.03
43480;BME280;29067;35.492;-97.520;2023-06-14T11:42:59;96526.60;;;21.13;65.39
43480;BME280;29067;35.492;-97.520;2023-06-14T11:45:28;96527.80;;;20.34;66.93
43480;BME280;29067;35.492;-97.520;2023-06-14T11:47:57;96530.15;;;21.11;64.87
43480;BME280;29067;35.492;-97.520;2023-06-14T11:50:26;96533.48;;;21.85;63.27
43480;BME280;29067;35.492;-97.520;2023-06-14T11:52:55;96525.87;;;20.95;64.03
43480;BME280;29067;35.492;-97.520;2023-06-14T11:55:23;96523.74;;;21.45;63.68
43480;BME280;29067;35.492;-97.520;2023-06-14T11:57:53;96525.71;;;20.53;63.96
43480;BME280;29067;35.492;-97.520;2023-06-14T12:00:25;96531.59;;;20.85;63.85
43480;BME280;29067;35.492;-97.520;2023-06-14T12:02:54;96535.88;;;21.13;62.94
43480;BME280;29067;35.492;-97.520;2023-06-14T12:05:22;96532.95;;;20.71;63.91
43480;BME280;29067;35.492;-97.520;2023-06-14T12:07:57;96534.59;;;21.28;63.05
43480;BME280;29067;35.492;-97.520;2023-06-14T12:10:25;96535.82;;;21.41;62.93
43480;BME280;29067;35.492;-97.520;2023-06-14T12:12:57;96537.14;;;21.06;62.26
43480;BME280;29067;35.492;-97.520;2023-06-14T12:15:28;96541.76;;;21.86;60.86
43480;BME280;29067;35.492;-97.520;2023-06-14T12:17:57;96542.78;;;21.30;62.02
43480;BME280;29067;35.492;-97.520;2023-06-14T12:20:29;96543.82;;;21.79;60.88
43480;BME280;29067;35.492;-97.520;2023-06-14T12:22:59;96544.30;;;20.83;62.15
43480;BME280;29067;35.492;-97.520;2023-06-14T12:25:29;96544.08;;;22.39;60.42
43480;BME280;29067;35.492;-97.520;2023-06-14T12:27:58;96541.30;;;21.94;60.87
43480;BME280;29067;35.492;-97.520;2023-06-14T12:30:26;96542.79;;;20.27;62.78
43480;BME280;29067;35.492;-97.520;2023-06-14T12:32:54;96544.42;;;21.18;61.58
43480;BME280;29067;35.492;-97.520;2023-06-14T12:35:22;96546.06;;;21.59;60.26
43480;BME280;29067;35.492;-97.520;2023-06-14T12:37:50;96542.85;;;21.40;60.70
43480;BME280;29067;35.492;-97.520;2023-06-14T12:40:18;96544.18;;;19.91;62.99
43480;BME280;29067;35.492;-97.520;2023-06-14T12:42:46;96547.37;;;21.40;61.14
43480;BME280;29067;35.492;-97.520;2023-06-14T12:45:15;96546.44;;;21.99;60.47
43480;BME280;29067;35.492;-97.520;2023-06-14T12:47:44;96543.48;;;21.15;61.21
43480;BME280;29067;35.492;-97.520;2023-06-14T12:50:12;96542.30;;;21.08;62.64
43480;BME280;29067;35.492;-97.520;2023-06-14T12:52:39;96541.68;;;21.11;62.36
43480;BME280;29067;35.492;-97.520;2023-06-14T12:55:08;96540.23;;;19.48;65.66
43480;BME280;29067;35.492;-97.520;2023-06-14T12:57:36;96539.45;;;21.12;61.82